Portada
METAR-TAF:

METAR-TAF

Aeroports :

Santa Marta, Colòmbia

latitud: 11-08N, longitud: 074-14W, altitud: 4 m

Observació

L'informe es va fer fa 1 hora i 7 minuts, a les 01:00 UTC
Vent 6 kt del Est/Nord-Est
Temperatura 29°C
Humitat 70%
Pressió 1009 hPa
Visibilitat 10 km o més
Escasses núvols a una alçada de 2000 ft
Núvols disperses a una alçada de 20000 ft

METAR: SKSM 160100Z 07006KT 9999 FEW020 SCT200 29/23 A2980 REDZ

Hora: 21:07 (02:07 UTC)


TAF: manca

Observacions i pronòstics meteorològics de més de 4000 aeroports (METAR i TAF).

Les estacions disponibles són els punts grocs i vermells al mapa.

Posi el ratolí al punt desitjat per veure el nom de l'estació.

Feu clic per veure les observacions i els pronòstics meteorològics.

Per canviar el mapa: feu clic els botons verds amb una creu de color negre per apropar; al botó verd amb un guió per allunyar la imatge; o en les fletxes verdes per a mapes adjacents.


METAR-TAF: